createdAt,value
2022-07-26T00:01:34.028Z,11.82
2022-07-26T00:04:00.748Z,13.32
2022-07-26T00:06:27.223Z,15.52
2022-07-26T00:08:54.061Z,16.83
2022-07-26T00:11:20.662Z,16.83
2022-07-26T00:13:47.080Z,16.85
2022-07-26T00:16:13.714Z,20.90
2022-07-26T00:18:40.184Z,25.48
2022-07-26T00:21:06.966Z,16.90
2022-07-26T00:23:33.433Z,15.57
2022-07-26T00:25:59.935Z,16.98
2022-07-26T00:28:26.301Z,19.00
2022-07-26T00:30:52.698Z,21.48
2022-07-26T00:33:19.327Z,19.02
2022-07-26T00:35:45.738Z,20.08
2022-07-26T00:38:12.080Z,19.80
2022-07-26T00:40:38.455Z,23.33
2022-07-26T00:43:04.915Z,19.20
2022-07-26T00:45:31.261Z,15.82
2022-07-26T00:47:57.744Z,17.10
2022-07-26T00:50:24.198Z,20.48
2022-07-26T00:52:50.861Z,18.05
2022-07-26T00:55:17.640Z,19.70
2022-07-26T00:57:44.324Z,18.80
2022-07-26T01:00:13.253Z,21.50
2022-07-26T01:02:39.736Z,24.17
2022-07-26T01:05:06.737Z,18.15
2022-07-26T01:07:33.205Z,17.02
2022-07-26T01:09:59.639Z,21.98
2022-07-26T01:12:25.970Z,17.42
2022-07-26T01:14:52.376Z,17.95
2022-07-26T01:17:18.880Z,20.48
2022-07-26T01:19:45.224Z,18.83
2022-07-26T01:22:15.021Z,19.58
2022-07-26T01:24:41.602Z,19.35
2022-07-26T01:27:08.089Z,19.92
2022-07-26T01:29:36.226Z,19.50
2022-07-26T01:32:04.870Z,15.95
2022-07-26T01:34:31.378Z,20.00
2022-07-26T01:36:57.821Z,19.83
2022-07-26T01:39:24.207Z,20.50
2022-07-26T01:41:50.672Z,18.77
2022-07-26T01:44:17.215Z,17.73
2022-07-26T01:46:43.643Z,17.55
2022-07-26T01:49:10.145Z,16.85
2022-07-26T01:51:36.691Z,15.40
2022-07-26T01:54:03.122Z,22.83
2022-07-26T01:56:29.501Z,19.63
2022-07-26T01:58:55.923Z,16.17
2022-07-26T02:01:39.638Z,17.10
2022-07-26T02:04:07.016Z,15.85
2022-07-26T02:06:33.846Z,17.73
2022-07-26T02:09:00.855Z,14.85
2022-07-26T02:11:28.773Z,15.45
2022-07-26T02:13:55.139Z,16.58
2022-07-26T02:16:21.606Z,13.10
2022-07-26T02:18:48.217Z,15.68
2022-07-26T02:21:14.611Z,17.27
2022-07-26T02:23:41.994Z,23.13
2022-07-26T02:26:08.966Z,16.17
2022-07-26T02:28:35.465Z,15.77
2022-07-26T02:31:02.019Z,15.85
2022-07-26T02:33:28.489Z,19.95
2022-07-26T02:35:54.825Z,15.35
2022-07-26T02:38:21.216Z,16.48
2022-07-26T02:40:50.521Z,15.90
2022-07-26T02:43:17.220Z,20.52
2022-07-26T02:45:43.670Z,18.40
2022-07-26T02:48:10.201Z,17.45
2022-07-26T02:50:36.700Z,19.58
2022-07-26T02:53:03.149Z,20.73
2022-07-26T02:55:29.845Z,22.73
2022-07-26T02:57:56.306Z,21.55
2022-07-26T03:00:23.905Z,18.38
2022-07-26T03:02:51.364Z,21.80
2022-07-26T03:05:21.191Z,18.63
2022-07-26T03:07:47.908Z,19.77
2022-07-26T03:10:14.455Z,22.13
2022-07-26T03:12:41.080Z,20.75
2022-07-26T03:15:08.943Z,24.55
2022-07-26T03:17:35.366Z,21.73
2022-07-26T03:20:02.538Z,22.58
2022-07-26T03:22:29.048Z,20.20
2022-07-26T03:24:55.445Z,17.95
2022-07-26T03:27:21.801Z,18.13
2022-07-26T03:29:48.225Z,19.60
2022-07-26T03:32:14.634Z,22.42
2022-07-26T03:34:40.995Z,16.50
2022-07-26T03:37:07.356Z,19.90
2022-07-26T03:39:33.800Z,19.63
2022-07-26T03:42:00.221Z,20.45
2022-07-26T03:44:26.593Z,19.50
2022-07-26T03:46:52.967Z,19.52
2022-07-26T03:49:19.569Z,20.10
2022-07-26T03:51:46.063Z,18.50
2022-07-26T03:54:12.712Z,19.90
2022-07-26T03:56:40.149Z,20.38
2022-07-26T03:59:08.482Z,18.40
2022-07-26T04:01:35.412Z,20.10
2022-07-26T04:04:02.045Z,16.77
2022-07-26T04:06:28.596Z,19.67
2022-07-26T04:08:55.060Z,18.10
2022-07-26T04:11:21.465Z,16.20
2022-07-26T04:13:47.966Z,14.10
2022-07-26T04:16:14.457Z,13.48
2022-07-26T04:18:43.995Z,12.80
2022-07-26T04:21:10.627Z,12.98
2022-07-26T04:23:37.104Z,22.02
2022-07-26T04:26:03.556Z,12.45
2022-07-26T04:28:30.197Z,12.07
2022-07-26T04:30:57.282Z,13.07
2022-07-26T04:33:23.821Z,14.98
2022-07-26T04:35:50.242Z,13.95
2022-07-26T04:38:16.797Z,13.32
2022-07-26T04:40:43.400Z,11.32
2022-07-26T04:43:15.583Z,10.00
2022-07-26T04:45:42.639Z,17.40
2022-07-26T04:48:09.054Z,11.07
2022-07-26T04:50:35.447Z,11.48
2022-07-26T04:53:02.984Z,12.57
2022-07-26T04:55:29.671Z,15.25
2022-07-26T04:57:56.049Z,17.75
2022-07-26T05:00:25.837Z,13.30
2022-07-26T05:02:54.430Z,14.68
2022-07-26T05:05:22.289Z,16.55
2022-07-26T05:07:51.582Z,15.52
2022-07-26T05:10:19.068Z,12.77
2022-07-26T05:12:46.009Z,8.60
2022-07-26T05:15:14.153Z,13.25
2022-07-26T05:17:41.582Z,11.55
2022-07-26T05:20:08.503Z,12.57
2022-07-26T05:22:35.379Z,13.35
2022-07-26T05:25:01.781Z,9.30
2022-07-26T05:27:28.186Z,12.13
2022-07-26T05:29:56.080Z,9.45
2022-07-26T05:32:23.005Z,12.55
2022-07-26T05:34:49.762Z,12.50
2022-07-26T05:37:16.222Z,12.55
2022-07-26T05:39:42.557Z,8.93
2022-07-26T05:42:08.945Z,15.25
2022-07-26T05:44:35.355Z,7.68
2022-07-26T05:47:08.915Z,11.85
2022-07-26T05:49:40.169Z,12.32
2022-07-26T05:52:07.865Z,11.13
2022-07-26T05:54:34.240Z,11.75
2022-07-26T05:57:00.689Z,11.77
2022-07-26T05:59:27.107Z,9.93
2022-07-26T06:01:56.550Z,8.20
2022-07-26T06:04:26.755Z,13.18
2022-07-26T06:06:54.676Z,10.68
2022-07-26T06:09:21.485Z,13.82
2022-07-26T06:11:47.907Z,10.98
2022-07-26T06:14:14.770Z,10.38
2022-07-26T06:16:41.550Z,16.13
2022-07-26T06:19:07.999Z,12.43
2022-07-26T06:21:34.410Z,8.00
2022-07-26T06:24:00.843Z,12.88
2022-07-26T06:26:27.181Z,17.90
2022-07-26T06:28:53.587Z,7.22
2022-07-26T06:31:20.082Z,9.20
2022-07-26T06:33:46.652Z,7.28
2022-07-26T06:36:13.135Z,6.95
2022-07-26T06:38:39.670Z,5.35
2022-07-26T06:41:06.126Z,6.32
2022-07-26T06:43:33.162Z,9.13
2022-07-26T06:45:59.734Z,8.15
2022-07-26T06:48:26.142Z,5.30
2022-07-26T06:50:52.573Z,6.95
2022-07-26T06:53:18.907Z,7.78
2022-07-26T06:55:45.261Z,16.98
2022-07-26T06:58:12.517Z,7.65
2022-07-26T07:00:39.070Z,9.73
2022-07-26T07:03:05.578Z,9.80
2022-07-26T07:05:32.921Z,3.97
2022-07-26T07:07:59.286Z,4.28
2022-07-26T07:10:25.644Z,7.35
2022-07-26T07:12:52.041Z,8.35
2022-07-26T07:15:18.507Z,10.07
2022-07-26T07:17:45.346Z,6.00
2022-07-26T07:20:12.084Z,11.38
2022-07-26T07:22:38.453Z,8.93
2022-07-26T07:25:06.212Z,7.75
2022-07-26T07:27:32.826Z,12.65
2022-07-26T07:29:59.834Z,9.57
2022-07-26T07:32:26.529Z,9.65
2022-07-26T07:34:55.096Z,4.75
2022-07-26T07:37:21.497Z,7.68
2022-07-26T07:39:50.485Z,6.95
2022-07-26T07:42:17.177Z,6.05
2022-07-26T07:44:43.829Z,5.90
2022-07-26T07:47:10.407Z,8.77
2022-07-26T07:49:36.810Z,7.07
2022-07-26T07:52:03.356Z,13.50
2022-07-26T07:54:30.155Z,8.77
2022-07-26T07:56:56.589Z,7.60
2022-07-26T07:59:23.741Z,11.38
2022-07-26T08:01:50.316Z,8.23
2022-07-26T08:04:16.949Z,7.45
2022-07-26T08:06:50.253Z,4.68
2022-07-26T08:09:18.235Z,6.07
2022-07-26T08:11:44.895Z,6.80
2022-07-26T08:14:11.460Z,7.18
2022-07-26T08:16:39.762Z,6.53
2022-07-26T08:19:06.934Z,9.00
2022-07-26T08:21:33.285Z,4.45
2022-07-26T08:23:59.718Z,6.07
2022-07-26T08:26:26.170Z,10.02
2022-07-26T08:29:10.254Z,6.38
2022-07-26T08:31:37.325Z,2.50
2022-07-26T08:34:03.903Z,7.07
2022-07-26T08:36:32.784Z,9.95
2022-07-26T08:38:59.524Z,10.07
2022-07-26T08:41:25.871Z,4.43
2022-07-26T08:43:53.773Z,4.43
2022-07-26T08:46:24.799Z,7.00
2022-07-26T08:48:52.288Z,6.28
2022-07-26T08:51:20.207Z,5.35
2022-07-26T08:53:47.249Z,6.10
2022-07-26T08:56:13.939Z,9.02
2022-07-26T08:58:40.935Z,9.10
2022-07-26T09:01:09.471Z,11.35
2022-07-26T09:03:39.034Z,3.70
2022-07-26T09:06:18.598Z,10.23
2022-07-26T09:08:46.076Z,8.25
2022-07-26T09:11:24.570Z,6.85
2022-07-26T09:13:55.616Z,7.13
2022-07-26T09:16:22.084Z,9.43
2022-07-26T09:18:48.589Z,7.13
2022-07-26T09:21:36.312Z,5.82
2022-07-26T09:24:02.667Z,7.05
2022-07-26T09:26:29.140Z,8.95
2022-07-26T09:29:09.177Z,3.58
2022-07-26T09:31:36.774Z,7.53
2022-07-26T09:34:06.875Z,5.47
2022-07-26T09:36:33.652Z,15.02
2022-07-26T09:39:01.799Z,4.03
2022-07-26T09:41:30.068Z,7.28
2022-07-26T09:43:58.657Z,7.88
2022-07-26T09:46:27.867Z,6.00
2022-07-26T09:49:13.674Z,6.93
2022-07-26T09:51:41.321Z,2.40
2022-07-26T09:54:09.001Z,4.47
2022-07-26T09:57:05.123Z,4.10
2022-07-26T09:59:31.535Z,5.00
2022-07-26T10:01:58.639Z,4.90
2022-07-26T10:04:25.369Z,7.93
2022-07-26T10:06:51.738Z,4.68
2022-07-26T10:09:23.223Z,8.35
2022-07-26T10:11:52.335Z,7.05
2022-07-26T10:14:33.932Z,2.97
2022-07-26T10:17:01.203Z,9.10
2022-07-26T10:19:45.212Z,6.32
2022-07-26T10:22:30.565Z,2.70
2022-07-26T10:24:58.487Z,6.00
2022-07-26T10:27:40.942Z,5.32
2022-07-26T10:30:16.708Z,4.00
2022-07-26T10:32:52.339Z,4.50
2022-07-26T10:35:38.934Z,4.03
2022-07-26T10:38:07.229Z,5.78
2022-07-26T10:40:34.187Z,6.18
2022-07-26T10:43:39.408Z,4.72
2022-07-26T10:46:15.671Z,4.32
2022-07-26T10:49:03.492Z,2.90
2022-07-26T10:51:34.638Z,9.18
2022-07-26T10:54:01.929Z,7.43
2022-07-26T10:56:33.090Z,6.57
2022-07-26T10:59:00.374Z,4.53
2022-07-26T11:01:36.345Z,2.35
2022-07-26T11:04:02.953Z,4.28
2022-07-26T11:06:30.307Z,2.50
2022-07-26T11:08:56.699Z,3.28
2022-07-26T11:11:30.058Z,5.25
2022-07-26T11:14:09.974Z,5.65
2022-07-26T11:16:37.816Z,5.95
2022-07-26T11:19:16.266Z,10.15
2022-07-26T11:21:43.862Z,3.55
2022-07-26T11:24:10.793Z,2.25
2022-07-26T11:26:41.182Z,3.70
2022-07-26T11:29:07.610Z,6.95
2022-07-26T11:31:51.094Z,4.63
2022-07-26T11:34:24.666Z,6.90
2022-07-26T11:36:52.602Z,4.93
2022-07-26T11:39:22.205Z,7.32
2022-07-26T11:41:48.753Z,3.70
2022-07-26T11:44:16.384Z,1.73
2022-07-26T11:46:47.952Z,2.38
2022-07-26T11:49:15.940Z,2.08
2022-07-26T11:51:54.271Z,3.00
2022-07-26T11:54:27.793Z,3.50
2022-07-26T11:56:54.246Z,4.82
2022-07-26T11:59:21.107Z,8.00
2022-07-26T12:01:49.803Z,1.60
2022-07-26T12:04:24.567Z,2.50
2022-07-26T12:06:52.375Z,1.70
2022-07-26T12:09:28.849Z,3.35
2022-07-26T12:11:55.263Z,2.25
2022-07-26T12:14:28.775Z,2.47
2022-07-26T12:16:55.360Z,10.70
2022-07-26T12:19:21.690Z,3.17
2022-07-26T12:21:49.475Z,3.40
2022-07-26T12:24:34.277Z,6.22
2022-07-26T12:27:11.143Z,3.33
2022-07-26T12:29:38.779Z,8.00
2022-07-26T12:32:16.188Z,5.00
2022-07-26T12:34:55.356Z,8.77
2022-07-26T12:37:23.439Z,4.35
2022-07-26T12:40:11.584Z,8.85
2022-07-26T12:42:38.778Z,5.70
2022-07-26T12:45:07.675Z,2.22
2022-07-26T12:47:36.052Z,7.70
2022-07-26T12:50:03.650Z,2.05
2022-07-26T12:52:31.050Z,4.78
2022-07-26T12:54:57.449Z,8.80
2022-07-26T12:57:23.799Z,1.98
2022-07-26T12:59:51.714Z,2.33
2022-07-26T13:02:18.710Z,2.85
2022-07-26T13:04:45.582Z,2.67
2022-07-26T13:07:12.371Z,2.53
2022-07-26T13:09:38.783Z,10.15
2022-07-26T13:12:05.795Z,5.95
2022-07-26T13:14:33.560Z,3.97
2022-07-26T13:17:01.041Z,2.05
2022-07-26T13:19:28.095Z,8.38
2022-07-26T13:21:55.730Z,8.82
2022-07-26T13:24:22.221Z,2.55
2022-07-26T13:26:49.092Z,8.30
2022-07-26T13:29:15.497Z,3.83
2022-07-26T13:31:41.967Z,7.18
2022-07-26T13:34:08.939Z,2.90
2022-07-26T13:36:35.636Z,7.10
2022-07-26T13:39:02.079Z,5.68
2022-07-26T13:41:29.522Z,3.97
2022-07-26T13:43:57.920Z,6.55
2022-07-26T13:46:26.385Z,4.95
2022-07-26T13:49:00.906Z,2.65
2022-07-26T13:52:01.685Z,5.60
2022-07-26T13:54:32.036Z,4.25
2022-07-26T13:56:59.484Z,7.35
2022-07-26T13:59:26.412Z,7.05
2022-07-26T14:01:53.609Z,3.63
2022-07-26T14:04:20.726Z,6.90
2022-07-26T14:06:47.294Z,4.00
2022-07-26T14:09:14.373Z,4.03
2022-07-26T14:11:41.302Z,4.57
2022-07-26T14:14:08.290Z,7.47
2022-07-26T14:16:34.994Z,7.45
2022-07-26T14:19:01.795Z,3.30
2022-07-26T14:21:28.981Z,2.90
2022-07-26T14:24:05.070Z,7.25
2022-07-26T14:26:31.454Z,7.13
2022-07-26T14:28:57.928Z,3.03
2022-07-26T14:31:24.347Z,4.05
2022-07-26T14:33:50.834Z,3.60
2022-07-26T14:36:17.298Z,4.93
2022-07-26T14:38:43.804Z,7.15
2022-07-26T14:41:10.698Z,9.40
2022-07-26T14:43:37.783Z,2.78
2022-07-26T14:46:04.306Z,4.72
2022-07-26T14:48:53.040Z,4.95
2022-07-26T14:51:17.379Z,4.43
2022-07-26T14:53:43.801Z,3.47
2022-07-26T14:56:10.339Z,3.63
2022-07-26T14:58:37.424Z,7.13
2022-07-26T15:01:03.961Z,5.50
2022-07-26T15:03:31.070Z,7.55
2022-07-26T15:05:57.824Z,3.75
2022-07-26T15:08:24.254Z,5.47
2022-07-26T15:10:50.662Z,4.20
2022-07-26T15:13:17.094Z,5.18
2022-07-26T15:15:43.530Z,7.47
2022-07-26T15:18:10.019Z,4.70
2022-07-26T15:20:40.419Z,3.63
2022-07-26T15:23:08.025Z,4.97
2022-07-26T15:25:35.374Z,4.65
2022-07-26T15:28:01.922Z,4.35
2022-07-26T15:30:28.403Z,11.15
2022-07-26T15:32:55.743Z,4.93
2022-07-26T15:35:27.975Z,3.17
2022-07-26T15:37:54.485Z,8.85
2022-07-26T15:40:21.220Z,8.52
2022-07-26T15:42:53.150Z,4.63
2022-07-26T15:45:20.299Z,9.95
2022-07-26T15:48:01.264Z,3.88
2022-07-26T15:50:31.003Z,5.35
2022-07-26T15:52:57.504Z,6.93
2022-07-26T15:55:23.905Z,4.38
2022-07-26T15:57:50.298Z,6.05
2022-07-26T16:00:16.884Z,4.63
2022-07-26T16:02:43.423Z,7.32
2022-07-26T16:05:10.587Z,4.88
2022-07-26T16:07:37.308Z,9.13
2022-07-26T16:10:04.380Z,5.90
2022-07-26T16:12:30.902Z,4.55
2022-07-26T16:14:57.366Z,5.72
2022-07-26T16:17:23.741Z,6.53
2022-07-26T16:19:50.451Z,5.25
2022-07-26T16:22:16.875Z,7.25
2022-07-26T16:24:46.361Z,5.88
2022-07-26T16:27:12.758Z,8.40
2022-07-26T16:29:39.169Z,7.03
2022-07-26T16:32:07.432Z,8.85
2022-07-26T16:34:34.769Z,9.88
2022-07-26T16:37:01.362Z,5.57
2022-07-26T16:39:27.786Z,4.93
2022-07-26T16:41:54.165Z,6.43
2022-07-26T16:44:20.805Z,11.10
2022-07-26T16:46:48.790Z,7.35
2022-07-26T16:49:15.748Z,6.15
2022-07-26T16:51:42.663Z,11.55
2022-07-26T16:54:09.150Z,9.85
2022-07-26T16:56:35.542Z,12.20
2022-07-26T16:59:01.919Z,9.07
2022-07-26T17:01:28.346Z,5.32
2022-07-26T17:03:54.959Z,8.23
2022-07-26T17:06:21.444Z,6.72
2022-07-26T17:08:47.852Z,5.43
2022-07-26T17:11:14.217Z,4.20
2022-07-26T17:13:40.680Z,7.10
2022-07-26T17:16:07.079Z,4.40
2022-07-26T17:18:33.546Z,5.85
2022-07-26T17:20:59.933Z,6.35
2022-07-26T17:23:26.341Z,7.35
2022-07-26T17:25:52.807Z,6.40
2022-07-26T17:28:19.225Z,7.78
2022-07-26T17:30:45.559Z,6.60
2022-07-26T17:33:12.186Z,3.67
2022-07-26T17:35:38.650Z,3.72
2022-07-26T17:38:05.103Z,9.80
2022-07-26T17:40:31.863Z,14.88
2022-07-26T17:42:58.719Z,5.53
2022-07-26T17:45:25.181Z,7.18
2022-07-26T17:47:51.570Z,6.53
2022-07-26T17:53:04.419Z,6.35
2022-07-26T17:55:30.781Z,10.07
2022-07-26T17:57:57.164Z,12.23
2022-07-26T18:00:23.810Z,5.15
2022-07-26T18:02:55.631Z,11.43
2022-07-26T18:05:22.190Z,5.90
2022-07-26T18:07:48.621Z,8.75
2022-07-26T18:10:15.221Z,5.90
2022-07-26T18:12:41.646Z,5.85
2022-07-26T18:15:08.306Z,7.00
2022-07-26T18:17:34.748Z,10.82
2022-07-26T18:20:01.053Z,4.80
2022-07-26T18:22:27.471Z,4.32
2022-07-26T18:24:53.967Z,5.10
2022-07-26T18:27:20.395Z,6.85
2022-07-26T18:29:46.832Z,8.35
2022-07-26T18:32:15.183Z,7.20
2022-07-26T18:34:41.581Z,11.15
2022-07-26T18:37:18.458Z,3.90
2022-07-26T18:39:44.816Z,4.03
2022-07-26T18:42:11.201Z,10.35
2022-07-26T18:44:38.139Z,7.07
2022-07-26T18:47:07.691Z,9.30
2022-07-26T18:49:34.969Z,10.00
2022-07-26T18:52:08.281Z,5.82
2022-07-26T18:54:35.441Z,8.07
2022-07-26T18:57:01.800Z,2.65
2022-07-26T18:59:29.082Z,3.78
2022-07-26T19:01:55.497Z,7.60
2022-07-26T19:04:22.221Z,10.65
2022-07-26T19:06:49.738Z,8.38
2022-07-26T19:09:16.222Z,3.88
2022-07-26T19:11:45.673Z,7.30
2022-07-26T19:14:12.338Z,13.45
2022-07-26T19:16:38.719Z,9.85
2022-07-26T19:19:05.078Z,7.05
2022-07-26T19:21:31.597Z,9.30
2022-07-26T19:23:57.992Z,12.82
2022-07-26T19:26:26.836Z,8.88
2022-07-26T19:28:53.239Z,7.32
2022-07-26T19:31:19.664Z,11.35
2022-07-26T19:33:46.118Z,5.38
2022-07-26T19:36:12.563Z,8.63
2022-07-26T19:38:44.500Z,8.52
2022-07-26T19:41:15.696Z,12.75
2022-07-26T19:43:42.516Z,8.77
2022-07-26T19:46:08.950Z,8.25
2022-07-26T19:48:35.464Z,8.43
2022-07-26T19:51:02.030Z,6.38
2022-07-26T19:53:28.476Z,6.47
2022-07-26T19:55:54.830Z,6.50
2022-07-26T19:58:21.315Z,8.02
2022-07-26T20:00:53.312Z,6.55
2022-07-26T20:03:19.782Z,9.68
2022-07-26T20:05:46.273Z,5.25
2022-07-26T20:08:12.922Z,8.77
2022-07-26T20:10:39.340Z,8.73
2022-07-26T20:13:05.759Z,11.07
2022-07-26T20:15:32.245Z,7.30
2022-07-26T20:17:59.074Z,7.43
2022-07-26T20:20:25.444Z,6.15
2022-07-26T20:22:51.845Z,4.55
2022-07-26T20:25:21.378Z,7.10
2022-07-26T20:27:49.821Z,5.85
2022-07-26T20:30:16.500Z,8.13
2022-07-26T20:32:43.082Z,8.15
2022-07-26T20:35:09.545Z,8.00
2022-07-26T20:37:36.018Z,7.85
2022-07-26T20:40:02.595Z,6.72
2022-07-26T20:42:29.441Z,8.43
2022-07-26T20:44:55.871Z,7.53
2022-07-26T20:47:22.264Z,8.88
2022-07-26T20:49:48.891Z,5.57
2022-07-26T20:52:15.369Z,9.65
2022-07-26T20:54:41.714Z,5.18
2022-07-26T20:57:08.261Z,6.75
2022-07-26T20:59:35.525Z,6.03
2022-07-26T21:02:02.156Z,8.52
2022-07-26T21:04:28.637Z,2.80
2022-07-26T21:06:54.991Z,3.72
2022-07-26T21:09:21.387Z,3.60
2022-07-26T21:11:47.764Z,7.28
2022-07-26T21:14:14.146Z,4.63
2022-07-26T21:16:40.643Z,4.70
2022-07-26T21:19:07.122Z,5.68
2022-07-26T21:21:34.291Z,3.80
2022-07-26T21:24:00.787Z,3.10
2022-07-26T21:26:27.177Z,7.47
2022-07-26T21:28:53.551Z,4.32
2022-07-26T21:31:21.022Z,5.78
2022-07-26T21:33:47.382Z,6.68
2022-07-26T21:36:15.143Z,5.40
2022-07-26T21:38:41.772Z,10.02
2022-07-26T21:41:08.351Z,6.43
2022-07-26T21:43:34.887Z,5.28
2022-07-26T21:46:02.632Z,7.20
2022-07-26T21:48:29.376Z,2.85
2022-07-26T21:50:55.787Z,4.03
2022-07-26T21:53:22.126Z,4.05
2022-07-26T21:55:48.475Z,3.25
2022-07-26T21:58:14.918Z,9.02
2022-07-26T22:00:44.495Z,6.75
2022-07-26T22:03:11.794Z,7.40
2022-07-26T22:05:38.312Z,5.68
2022-07-26T22:08:08.988Z,2.97
2022-07-26T22:10:44.276Z,3.83
2022-07-26T22:13:11.266Z,3.75
2022-07-26T22:15:37.617Z,5.88
2022-07-26T22:18:04.001Z,5.15
2022-07-26T22:20:34.580Z,4.57
2022-07-26T22:23:01.889Z,3.67
2022-07-26T22:25:28.887Z,2.33
2022-07-26T22:27:56.187Z,7.20
2022-07-26T22:30:24.310Z,5.45
2022-07-26T22:32:51.152Z,3.53
2022-07-26T22:35:17.837Z,2.63
2022-07-26T22:37:44.368Z,5.68
2022-07-26T22:40:11.040Z,10.48
2022-07-26T22:42:37.459Z,3.08
2022-07-26T22:45:09.632Z,5.20
2022-07-26T22:47:36.542Z,3.28
2022-07-26T22:50:05.577Z,7.28
2022-07-26T22:52:31.958Z,3.88
2022-07-26T22:54:58.351Z,4.28
2022-07-26T22:57:24.765Z,4.68
2022-07-26T22:59:54.250Z,4.63
2022-07-26T23:02:23.619Z,3.30
2022-07-26T23:04:52.907Z,4.95
2022-07-26T23:07:19.268Z,3.60
2022-07-26T23:09:49.201Z,6.00
2022-07-26T23:12:15.563Z,4.88
2022-07-26T23:14:42.380Z,3.95
2022-07-26T23:17:08.736Z,3.50
2022-07-26T23:19:35.132Z,4.07
2022-07-26T23:22:01.554Z,8.32
2022-07-26T23:24:27.948Z,6.53
2022-07-26T23:26:54.340Z,4.10
2022-07-26T23:29:20.831Z,6.53
2022-07-26T23:31:47.265Z,6.00
2022-07-26T23:34:13.669Z,7.80
2022-07-26T23:36:40.110Z,4.35
2022-07-26T23:39:06.529Z,6.50
2022-07-26T23:41:33.043Z,5.32
2022-07-26T23:43:59.424Z,4.35
2022-07-26T23:46:25.883Z,6.15
2022-07-26T23:48:55.632Z,5.47
2022-07-26T23:51:25.571Z,5.97
2022-07-26T23:53:52.207Z,5.97
2022-07-26T23:56:18.843Z,5.13
2022-07-26T23:58:45.770Z,7.75
